Time;durP1;ratioP1;P1;durP2;ratioP2;P2;SDS_P1;SDS_P2;PMS_P1;PMS_P2;Temp;Humidity;BMP_temperature;BMP_pressure;BME280_temperature;BME280_humidity;BME280_pressure;Samples;Min_cycle;Max_cycle;Signal;HPM_P1;HPM_P2
2021/11/08 00:01:16;;;;;;;4.45;1.30;;;;;;;5.47;94.11;98685.11;1686953;83;20999;-69
2021/11/08 00:03:46;;;;;;;3.12;1.20;;;;;;;5.48;94.16;98689.37;1701733;83;21059;-69
2021/11/08 00:06:11;;;;;;;2.27;1.00;;;;;;;5.50;94.21;98692.75;1672565;83;21125;-69
2021/11/08 00:08:39;;;;;;;2.37;1.27;;;;;;;5.53;94.27;98689.19;1691206;83;21003;-70
2021/11/08 00:11:06;;;;;;;5.20;2.00;;;;;;;5.53;94.22;98687.43;1700624;83;21077;-68
2021/11/08 00:13:34;;;;;;;4.25;1.35;;;;;;;5.54;94.22;98694.28;1675230;83;20929;-69
2021/11/08 00:18:38;;;;;;;5.50;1.60;;;;;;;5.57;94.28;98694.61;1701657;82;21414;-69
2021/11/08 00:21:00;;;;;;;3.72;1.50;;;;;;;5.58;94.31;98692.42;1708473;83;21078;-69
2021/11/08 00:23:27;;;;;;;3.08;1.72;;;;;;;5.59;94.31;98702.70;1695858;83;21611;-69
2021/11/08 00:25:54;;;;;;;;;;;;;;;5.60;94.32;98699.22;1672303;84;21025;-69
2021/11/08 00:28:22;;;;;;;4.53;1.32;;;;;;;5.63;94.39;98694.80;1673173;83;20119;-69
2021/11/08 00:30:51;;;;;;;3.00;1.30;;;;;;;5.63;94.37;98694.80;1672718;83;21541;-69
2021/11/08 00:33:19;;;;;;;3.42;1.22;;;;;;;5.66;94.46;98698.55;1674744;83;21082;-69
2021/11/08 00:35:49;;;;;;;7.05;1.92;;;;;;;5.65;94.43;98700.76;1668399;83;21020;-69
2021/11/08 00:38:18;;;;;;;4.92;1.35;;;;;;;5.69;94.49;98697.14;1678576;83;21572;-69
2021/11/08 00:40:47;;;;;;;4.83;1.70;;;;;;;5.70;94.48;98697.06;1676159;83;21676;-68
2021/11/08 00:43:15;;;;;;;5.25;1.92;;;;;;;5.71;94.48;98710.84;1674303;83;21308;-69
2021/11/08 00:45:43;;;;;;;3.92;1.90;;;;;;;5.71;94.46;98705.66;1679293;83;21049;-70
2021/11/08 00:48:09;;;;;;;5.12;1.60;;;;;;;5.72;94.48;98706.07;1678110;83;21032;-69
2021/11/08 00:50:37;;;;;;;6.65;1.67;;;;;;;5.73;94.55;98711.63;1678310;83;21011;-70
2021/11/08 00:53:05;;;;;;;3.27;1.50;;;;;;;5.74;94.57;98710.70;1670681;83;20992;-70
2021/11/08 00:55:32;;;;;;;;;;;;;;;5.74;94.55;98710.70;1675283;83;21083;-69
2021/11/08 00:58:01;;;;;;;6.00;2.25;;;;;;;5.74;94.56;98718.48;1670030;83;20193;-70
2021/11/08 01:00:31;;;;;;;4.87;1.65;;;;;;;5.76;94.65;98716.67;1674584;83;20981;-70
2021/11/08 01:03:00;;;;;;;7.00;2.10;;;;;;;5.76;94.65;98721.84;1672013;83;21615;-70
2021/11/08 01:05:26;;;;;;;4.33;1.72;;;;;;;5.78;94.69;98722.63;1674900;83;21052;-70
2021/11/08 01:07:53;;;;;;;8.33;1.77;;;;;;;5.79;94.72;98721.71;1672045;83;21901;-70
2021/11/08 01:10:20;;;;;;;9.78;2.10;;;;;;;5.81;94.79;98725.09;1666651;83;21833;-69
2021/11/08 01:12:48;;;;;;;5.45;1.85;;;;;;;5.83;94.60;98729.75;1671322;83;21086;-70
2021/11/08 01:15:15;;;;;;;4.53;1.87;;;;;;;5.85;94.73;98726.62;1671431;83;21176;-70
2021/11/08 01:17:43;;;;;;;12.37;1.87;;;;;;;5.86;94.73;98737.84;1678340;83;21090;-69
2021/11/08 01:20:11;;;;;;;5.60;1.95;;;;;;;5.85;94.75;98731.80;1680541;83;21069;-70
2021/11/08 01:22:42;;;;;;;6.42;2.35;;;;;;;5.88;94.82;98739.89;1697392;83;20959;-70
2021/11/08 01:25:11;;;;;;;5.58;1.40;;;;;;;5.90;94.86;98740.22;1703329;83;21000;-70
2021/11/08 01:27:43;;;;;;;8.33;1.92;;;;;;;5.91;94.85;98743.22;1712821;83;20922;-69
2021/11/08 01:30:18;;;;;;;9.68;2.20;;;;;;;5.89;94.81;98746.32;1701196;83;21037;-70
2021/11/08 01:33:01;;;;;;;7.85;2.05;;;;;;;5.90;94.88;98747.98;1701689;82;21603;-70
2021/11/08 01:35:38;;;;;;;7.62;2.15;;;;;;;5.92;94.97;98747.48;1699711;83;20940;-68
2021/11/08 01:38:05;;;;;;;5.65;2.02;;;;;;;5.95;94.98;98751.26;1703926;82;21009;-69
2021/11/08 01:40:31;;;;;;;6.42;1.67;;;;;;;5.98;95.01;98756.30;1703700;83;20992;-68
2021/11/08 01:42:58;;;;;;;;;;;;;;;6.00;95.04;98767.45;1703938;82;21027;-69
2021/11/08 01:45:24;;;;;;;;;;;;;;;5.99;94.97;98765.78;1705706;82;21177;-69
2021/11/08 01:47:51;;;;;;;4.20;1.67;;;;;;;5.99;95.00;98776.14;1702816;83;21347;-68
2021/11/08 01:50:18;;;;;;;5.87;1.63;;;;;;;5.99;95.06;98772.26;1708529;82;21278;-68
2021/11/08 01:52:45;;;;;;;8.98;1.90;;;;;;;6.00;95.10;98770.05;1699440;82;21027;-68
2021/11/08 01:55:11;;;;;;;3.40;1.30;;;;;;;6.01;95.11;98774.30;1707633;82;21099;-68
2021/11/08 01:57:38;;;;;;;8.10;1.70;;;;;;;6.03;95.12;98778.97;1701577;83;21426;-68
2021/11/08 02:00:08;;;;;;;6.42;1.75;;;;;;;6.04;95.08;98776.76;1707625;82;21002;-69
2021/11/08 02:02:36;;;;;;;5.78;1.52;;;;;;;6.05;95.09;98777.62;1705922;82;21532;-68
2021/11/08 02:05:04;;;;;;;3.85;1.50;;;;;;;6.07;95.09;98777.55;1703908;83;21007;-69
2021/11/08 02:07:32;;;;;;;3.33;1.20;;;;;;;6.08;95.08;98776.63;1701964;83;20945;-69
2021/11/08 02:09:59;;;;;;;4.78;1.55;;;;;;;6.08;95.07;98780.51;1707322;83;21769;-68
2021/11/08 02:12:27;;;;;;;;;;;;;;;6.08;95.03;98783.10;1709415;82;21011;-68
2021/11/08 02:14:54;;;;;;;3.40;1.07;;;;;;;6.05;95.06;98782.81;1699972;83;20150;-68
2021/11/08 02:17:21;;;;;;;1.60;0.90;;;;;;;6.04;95.10;98779.35;1701402;82;21041;-68
2021/11/08 02:19:48;;;;;;;4.25;1.27;;;;;;;6.04;95.16;98783.23;1704552;83;21131;-68
2021/11/08 02:22:15;;;;;;;3.67;1.10;;;;;;;6.05;95.19;98787.53;1701289;83;21464;-68
2021/11/08 02:24:42;;;;;;;5.47;1.10;;;;;;;6.07;95.24;98790.50;1701977;82;24394;-68
2021/11/08 02:27:09;;;;;;;1.55;0.85;;;;;;;6.08;95.17;98793.47;1711598;82;21032;-68
2021/11/08 02:29:36;;;;;;;4.70;1.62;;;;;;;6.07;95.22;98790.50;1698819;82;21522;-68
2021/11/08 02:32:04;;;;;;;3.67;1.03;;;;;;;6.08;95.25;98790.45;1709695;82;21042;-68
2021/11/08 02:34:31;;;;;;;2.70;1.32;;;;;;;6.10;95.27;98794.25;1717785;82;21255;-69
2021/11/08 02:36:58;;;;;;;2.60;0.90;;;;;;;6.10;95.31;98798.97;1706740;82;21060;-68
2021/11/08 02:39:31;;;;;;;3.23;0.97;;;;;;;6.11;95.36;98795.49;1701894;82;21055;-68
2021/11/08 02:41:53;;;;;;;2.58;1.00;;;;;;;6.14;95.34;98807.48;1709697;82;21017;-69
2021/11/08 02:44:20;;;;;;;2.57;1.10;;;;;;;6.14;95.36;98804.89;1702376;83;22573;-69
2021/11/08 02:46:46;;;;;;;3.27;1.27;;;;;;;6.14;95.35;98810.07;1690937;82;21500;-69
2021/11/08 02:49:15;;;;;;;3.77;1.25;;;;;;;6.16;95.39;98814.70;1666791;84;21116;-69
2021/11/08 02:51:57;;;;;;;4.40;0.90;;;;;;;6.15;95.38;98819.52;1700518;82;21522;-69
2021/11/08 02:54:27;;;;;;;3.87;1.10;;;;;;;6.14;95.26;98820.44;1698662;82;21039;-68
2021/11/08 02:56:45;;;;;;;2.67;0.93;;;;;;;6.10;95.20;98822.76;1701247;82;21015;-69
2021/11/08 02:59:12;;;;;;;2.77;1.00;;;;;;;6.09;95.31;98826.27;1709815;83;24883;-69
2021/11/08 03:01:38;;;;;;;2.80;0.93;;;;;;;6.08;95.36;98841.41;1704981;82;20946;-67
2021/11/08 03:04:12;;;;;;;1.85;0.85;;;;;;;6.08;95.43;98847.89;1708404;83;21030;-69
2021/11/08 03:06:34;;;;;;;2.10;0.75;;;;;;;6.09;95.49;98845.70;1700283;83;21033;-69
2021/11/08 03:09:21;;;;;;;5.00;1.25;;;;;;;6.10;95.52;98855.98;1713161;82;20993;-68
2021/11/08 03:11:48;;;;;;;2.47;0.85;;;;;;;6.12;95.59;98854.64;1694958;83;21406;-69
2021/11/08 03:14:19;;;;;;;2.42;1.05;;;;;;;6.14;95.54;98857.56;1712281;83;20999;-69
2021/11/08 03:16:55;;;;;;;3.90;1.00;;;;;;;6.15;95.54;98854.51;1700680;83;21697;-69
2021/11/08 03:21:50;;;;;;;4.37;1.15;;;;;;;6.16;95.52;98862.66;1643959;85;21574;-69
2021/11/08 03:24:35;;;;;;;2.22;1.12;;;;;;;6.17;95.56;98866.95;1674147;84;21592;-69
2021/11/08 03:26:52;;;;;;;2.12;0.90;;;;;;;6.17;95.54;98865.66;1633975;84;21588;-68
2021/11/08 03:29:19;;;;;;;2.08;0.90;;;;;;;6.16;95.48;98865.25;1663870;84;21033;-68
2021/11/08 03:31:50;;;;;;;6.75;0.90;;;;;;;6.16;95.53;98873.03;1644266;85;21021;-68
2021/11/08 03:34:18;;;;;;;1.87;0.85;;;;;;;6.15;95.51;98870.06;1681033;84;21059;-68
2021/11/08 03:36:47;;;;;;;4.87;0.90;;;;;;;6.14;95.56;98878.30;1655251;85;21129;-68
2021/11/08 03:39:14;;;;;;;2.80;0.80;;;;;;;6.17;95.62;98882.51;1673718;84;21496;-68
2021/11/08 03:41:41;;;;;;;2.45;1.30;;;;;;;6.18;95.64;98879.00;1658063;84;21029;-69
2021/11/08 03:44:08;;;;;;;2.17;0.88;;;;;;;6.18;95.63;98886.77;1677188;84;21025;-69
2021/11/08 03:46:35;;;;;;;2.52;1.05;;;;;;;6.18;95.60;98881.59;1664502;84;20936;-69
2021/11/08 03:49:02;;;;;;;1.80;0.65;;;;;;;6.18;95.57;98889.37;1657657;84;21132;-68
2021/11/08 03:51:28;;;;;;;1.25;0.70;;;;;;;6.16;95.56;98888.58;1683009;84;21117;-69
2021/11/08 03:53:55;;;;;;;1.92;0.65;;;;;;;6.15;95.62;98898.57;1654753;85;21482;-69
2021/11/08 03:56:21;;;;;;;2.12;0.80;;;;;;;6.14;95.60;98905.51;1645955;85;20932;-68
2021/11/08 03:58:48;;;;;;;3.20;0.80;;;;;;;6.15;95.69;98908.94;1685377;84;21051;-69
2021/11/08 04:01:15;;;;;;;2.17;0.93;;;;;;;6.17;95.69;98907.13;1654650;85;21493;-69
2021/11/08 04:03:41;;;;;;;2.00;0.63;;;;;;;6.17;95.67;98908.43;1673798;84;21567;-69
2021/11/08 04:06:08;;;;;;;3.25;0.98;;;;;;;6.17;95.67;98913.61;1659232;84;21627;-68
2021/11/08 04:08:36;;;;;;;2.83;0.80;;;;;;;6.17;95.67;98916.20;1653591;85;20947;-69
2021/11/08 04:11:03;;;;;;;0.80;0.50;;;;;;;6.17;95.70;98918.80;1677360;84;20929;-68
2021/11/08 04:13:34;;;;;;;2.47;0.78;;;;;;;6.18;95.69;98921.31;1643758;85;21148;-68
2021/11/08 04:16:01;;;;;;;3.58;0.90;;;;;;;6.18;95.68;98921.77;1678503;84;21032;-69
2021/11/08 04:18:30;;;;;;;1.75;0.90;;;;;;;6.18;95.66;98923.06;1660457;84;21651;-69
2021/11/08 04:20:59;;;;;;;8.78;0.80;;;;;;;6.14;95.56;98926.70;1669803;84;21635;-69
2021/11/08 04:23:27;;;;;;;2.17;1.00;;;;;;;6.10;95.56;98931.15;1704581;82;21116;-69
2021/11/08 04:25:57;;;;;;;1.67;0.90;;;;;;;6.11;95.72;98934.61;1684820;83;23719;-69
2021/11/08 04:28:24;;;;;;;0.95;0.78;;;;;;;6.12;95.80;98936.28;1707738;83;21017;-69
2021/11/08 04:30:51;;;;;;;3.83;1.30;;;;;;;6.13;95.85;98928.89;1701987;82;20957;-69
2021/11/08 04:33:23;;;;;;;1.22;0.82;;;;;;;6.15;95.87;98930.97;1708378;83;21547;-69
2021/11/08 04:36:11;;;;;;;2.87;0.80;;;;;;;6.16;95.87;98939.13;1705915;83;21600;-69
2021/11/08 04:41:02;;;;;;;3.17;0.72;;;;;;;6.18;95.93;98948.52;1698766;83;20956;-69
2021/11/08 04:43:46;;;;;;;3.77;0.98;;;;;;;6.20;95.92;98947.18;1704992;82;21587;-68
2021/11/08 04:48:57;;;;;;;1.92;0.80;;;;;;;6.19;95.82;98945.47;1688583;83;21735;-68
2021/11/08 04:51:45;;;;;;;1.90;1.10;;;;;;;6.15;95.75;98949.11;1704062;83;22267;-68
2021/11/08 04:54:26;;;;;;;2.98;0.90;;;;;;;6.11;95.75;98944.98;1703805;82;21525;-69
2021/11/08 05:24:26;;;;;;;3.52;1.30;;;;;;;6.28;96.18;98984.84;1687473;84;21587;-68
2021/11/08 05:32:20;;;;;;;2.55;1.27;;;;;;;6.39;96.29;98999.11;1689206;84;21853;-68
2021/11/08 05:34:47;;;;;;;7.95;1.62;;;;;;;6.41;96.33;99004.63;1688696;83;21045;-68
2021/11/08 05:37:15;;;;;;;2.77;1.42;;;;;;;6.44;96.35;99004.50;1688244;84;21096;-67
2021/11/08 05:39:48;;;;;;;;;;;;;;;6.44;96.22;99008.81;1693608;83;21088;-68
2021/11/08 05:42:12;;;;;;;4.65;1.45;;;;;;;6.45;96.29;99013.95;1688179;83;20519;-68
2021/11/08 05:44:40;;;;;;;4.50;1.80;;;;;;;6.43;96.27;99017.05;1691082;83;21414;-68
2021/11/08 05:47:08;;;;;;;4.90;2.10;;;;;;;6.44;96.31;99021.36;1689427;84;21540;-68
2021/11/08 05:49:36;;;;;;;3.12;1.62;;;;;;;6.45;96.35;99023.03;1690533;83;21532;-68
2021/11/08 05:52:04;;;;;;;2.67;1.60;;;;;;;6.48;96.43;99033.27;1686983;83;21195;-69
2021/11/08 05:54:32;;;;;;;5.42;1.67;;;;;;;6.51;96.45;99037.49;1689188;84;21001;-68
2021/11/08 06:49:22;;;;;;;1.95;0.70;;;;;;;7.10;96.62;99131.90;1613550;87;21112;-66
2021/11/08 06:51:51;;;;;;;1.70;0.60;;;;;;;7.09;96.41;99134.12;1618449;87;21163;-66
2021/11/08 06:54:25;;;;;;;1.82;0.90;;;;;;;7.05;96.40;99142.47;1616064;87;21633;-66
2021/11/08 06:56:55;;;;;;;2.20;1.50;;;;;;;7.08;96.63;99146.69;1608613;87;21567;-67
2021/11/08 06:59:25;;;;;;;7.42;3.98;;;;;;;7.10;96.59;99147.47;1616783;85;21653;-67
2021/11/08 07:01:55;;;;;;;3.62;1.90;;;;;;;7.08;96.54;99163.56;1619909;87;21175;-67
2021/11/08 07:04:25;;;;;;;2.50;0.98;;;;;;;6.99;96.13;99165.25;1605917;88;21634;-67
2021/11/08 07:06:52;;;;;;;2.20;0.93;;;;;;;6.81;96.12;99164.27;1613006;87;21681;-67
2021/11/08 07:09:21;;;;;;;1.40;0.80;;;;;;;6.67;96.11;99186.41;1611976;87;21031;-67
2021/11/08 07:11:48;;;;;;;0.93;0.70;;;;;;;6.57;96.25;99187.67;1615887;87;21060;-67
2021/11/08 07:14:16;;;;;;;0.68;0.57;;;;;;;6.53;96.46;99195.66;1614265;87;22016;-67
2021/11/08 07:16:44;;;;;;;1.37;0.70;;;;;;;6.42;96.69;99194.31;1612153;87;21262;-66
2021/11/08 07:19:15;;;;;;;1.45;0.65;;;;;;;6.34;96.80;99198.11;1612630;86;21080;-66
2021/11/08 07:21:42;;;;;;;1.57;0.90;;;;;;;6.28;96.86;99204.38;1617744;88;21616;-66
2021/11/08 07:24:31;;;;;;;1.27;1.00;;;;;;;6.24;96.73;99207.97;1614622;87;21040;-66
2021/11/08 07:26:58;;;;;;;1.80;1.10;;;;;;;6.20;97.06;99220.20;1624579;87;21060;-66
2021/11/08 07:29:28;;;;;;;1.47;1.10;;;;;;;6.15;96.96;99231.65;1621312;87;21488;-66
2021/11/08 07:31:57;;;;;;;1.67;1.00;;;;;;;6.14;97.15;99233.41;1602053;88;21070;-66
2021/11/08 07:34:24;;;;;;;1.62;1.10;;;;;;;6.10;97.20;99241.34;1630320;86;21051;-66
2021/11/08 07:36:52;;;;;;;0.80;0.57;;;;;;;6.09;97.17;99244.84;1637762;86;21022;-67
2021/11/08 07:39:22;;;;;;;2.00;0.98;;;;;;;6.10;97.24;99251.70;1645208;86;21021;-67
2021/11/08 07:41:50;;;;;;;1.98;0.70;;;;;;;6.08;97.05;99258.68;1641384;86;21568;-66
2021/11/08 07:44:17;;;;;;;2.05;1.05;;;;;;;6.04;97.16;99260.09;1638562;86;21046;-66
2021/11/08 07:46:44;;;;;;;3.15;2.30;;;;;;;5.96;97.44;99267.29;1635494;86;21096;-66
2021/11/08 07:49:11;;;;;;;2.67;2.10;;;;;;;5.91;97.24;99265.73;1633055;86;21710;-66
2021/11/08 07:51:38;;;;;;;3.42;2.80;;;;;;;5.88;97.40;99268.02;1640800;86;21036;-66
2021/11/08 07:54:05;;;;;;;1.52;1.40;;;;;;;5.85;97.44;99286.23;1644635;86;21652;-65
2021/11/08 07:56:31;;;;;;;5.40;2.15;;;;;;;5.81;97.81;99287.25;1641761;86;21578;-67
2021/11/08 07:58:58;;;;;;;7.63;2.77;;;;;;;5.78;97.60;99283.02;1638238;85;21009;-65
2021/11/08 08:01:28;;;;;;;8.05;2.08;;;;;;;5.79;97.47;99291.63;1642888;86;21119;-65
2021/11/08 08:03:55;;;;;;;6.15;3.42;;;;;;;5.78;97.66;99297.72;1634251;86;21110;-66
2021/11/08 08:06:22;;;;;;;4.30;3.50;;;;;;;5.70;98.21;99304.91;1638203;82;21054;-65
2021/11/08 08:08:50;;;;;;;4.30;2.60;;;;;;;5.71;97.72;99306.59;1727123;81;20905;-67
2021/11/08 08:11:19;;;;;;;3.37;1.82;;;;;;;5.74;97.90;99319.43;1726555;81;20952;-67
2021/11/08 08:13:46;;;;;;;3.37;1.62;;;;;;;5.75;97.64;99312.08;1723990;81;21047;-67
2021/11/08 08:16:17;;;;;;;3.65;1.70;;;;;;;5.77;97.58;99324.50;1730647;81;21054;-67
2021/11/08 08:18:45;;;;;;;5.00;2.00;;;;;;;5.80;97.52;99324.43;1729337;81;22049;-67
2021/11/08 08:21:15;;;;;;;5.53;2.22;;;;;;;5.84;97.63;99329.89;1728613;81;21661;-67
2021/11/08 08:23:42;;;;;;;4.95;2.10;;;;;;;5.83;97.68;99334.69;1727011;81;20980;-67
2021/11/08 08:26:11;;;;;;;3.33;1.30;;;;;;;5.83;97.49;99337.27;1721014;81;21040;-67
2021/11/08 08:28:39;;;;;;;4.37;2.20;;;;;;;5.85;97.53;99343.23;1717199;82;21105;-67
2021/11/08 08:31:06;;;;;;;;;;;;;;;5.84;97.58;99341.55;1713999;81;21249;-67
2021/11/08 08:33:34;;;;;;;5.42;2.22;;;;;;;5.80;97.50;99350.34;1713511;81;20212;-66
2021/11/08 08:36:01;;;;;;;5.00;2.42;;;;;;;5.75;97.49;99353.07;1716421;81;21548;-67
2021/11/08 08:38:28;;;;;;;3.27;1.60;;;;;;;5.75;97.53;99360.00;1714236;82;21043;-66
2021/11/08 08:40:55;;;;;;;5.20;2.62;;;;;;;5.77;97.55;99371.14;1717707;81;21563;-66
2021/11/08 08:43:24;;;;;;;4.37;1.70;;;;;;;5.74;97.49;99376.42;1713730;81;21566;-66
2021/11/08 08:45:51;;;;;;;7.00;3.90;;;;;;;5.73;97.41;99377.33;1716206;82;21103;-66
2021/11/08 08:48:20;;;;;;;18.17;10.60;;;;;;;5.74;97.41;99381.18;1688452;82;24833;-66
2021/11/08 08:50:47;;;;;;;9.00;5.60;;;;;;;5.73;97.44;99387.70;1714248;81;21039;-67
2021/11/08 08:53:15;;;;;;;5.12;2.70;;;;;;;5.67;97.25;99393.08;1712891;82;21020;-67
2021/11/08 08:55:44;;;;;;;6.62;2.52;;;;;;;5.63;97.23;99397.94;1714786;82;21098;-67
2021/11/08 08:58:12;;;;;;;5.47;2.50;;;;;;;5.62;97.23;99399.69;1719417;81;21962;-66
2021/11/08 09:00:44;;;;;;;5.80;2.17;;;;;;;5.60;97.27;99403.64;1715569;82;21986;-67
2021/11/08 09:03:11;;;;;;;4.08;2.02;;;;;;;5.60;97.28;99410.12;1713718;81;21016;-67
2021/11/08 09:05:38;;;;;;;5.10;2.08;;;;;;;5.64;97.30;99415.20;1714962;82;21008;-67
2021/11/08 09:08:05;;;;;;;3.67;2.00;;;;;;;5.71;97.43;99418.81;1716036;81;21091;-67
2021/11/08 09:10:35;;;;;;;5.95;2.62;;;;;;;5.80;97.40;99417.70;1712595;82;21484;-67
2021/11/08 09:13:04;;;;;;;4.55;1.55;;;;;;;5.90;97.59;99424.25;1713755;81;21019;-67
2021/11/08 09:15:32;;;;;;;1.20;0.78;;;;;;;5.90;96.75;99428.14;1715913;83;21011;-67
2021/11/08 09:18:00;;;;;;;5.55;1.00;;;;;;;5.89;96.79;99423.86;1713177;83;20940;-67
2021/11/08 09:20:27;;;;;;;1.27;0.45;;;;;;;5.91;96.83;99426.39;1715058;81;21104;-66
2021/11/08 09:22:55;;;;;;;1.95;0.80;;;;;;;5.88;96.46;99429.95;1715557;82;21524;-67
2021/11/08 09:25:24;;;;;;;2.72;0.80;;;;;;;5.84;96.27;99427.05;1720152;81;21046;-67
2021/11/08 09:27:56;;;;;;;3.92;0.95;;;;;;;5.87;96.51;99430.83;1720233;82;21065;-67
2021/11/08 09:30:28;;;;;;;2.70;1.55;;;;;;;5.96;96.87;99442.22;1717258;82;21425;-66
2021/11/08 09:32:55;;;;;;;3.22;0.88;;;;;;;6.01;96.78;99445.97;1713657;82;21081;-68
2021/11/08 09:35:23;;;;;;;2.75;0.93;;;;;;;6.02;96.60;99455.00;1712680;82;21535;-68
2021/11/08 09:37:52;;;;;;;1.85;0.95;;;;;;;5.97;96.30;99456.05;1714375;81;21571;-69
2021/11/08 09:40:23;;;;;;;4.42;1.30;;;;;;;5.94;96.41;99453.11;1716381;81;20993;-70
2021/11/08 09:42:53;;;;;;;4.35;1.75;;;;;;;5.90;96.32;99455.34;1717315;81;21016;-69
2021/11/08 09:45:20;;;;;;;1.42;0.65;;;;;;;5.89;96.50;99458.84;1719689;82;21448;-69
2021/11/08 09:47:48;;;;;;;3.02;0.82;;;;;;;5.82;96.03;99470.29;1715885;81;21567;-68
2021/11/08 09:50:20;;;;;;;6.75;1.32;;;;;;;5.75;96.14;99474.83;1714370;81;21020;-67
2021/11/08 09:52:49;;;;;;;1.60;0.90;;;;;;;5.73;96.29;99475.77;1713977;81;21749;-67
2021/11/08 09:55:20;;;;;;;0.78;0.55;;;;;;;5.76;96.54;99483.44;1670009;82;21059;-68
2021/11/08 09:57:50;;;;;;;2.67;0.90;;;;;;;5.78;96.51;99486.84;1714611;81;22317;-67
2021/11/08 10:00:28;;;;;;;4.90;0.90;;;;;;;5.84;96.71;99493.13;1713272;81;21519;-67
2021/11/08 10:02:59;;;;;;;2.12;1.02;;;;;;;5.84;96.55;99499.59;1712018;81;21083;-67
2021/11/08 10:05:34;;;;;;;1.00;0.60;;;;;;;5.86;96.66;99503.00;1715110;81;21119;-66
2021/11/08 10:08:02;;;;;;;2.40;0.98;;;;;;;5.84;96.52;99503.03;1711578;82;20977;-67
2021/11/08 10:10:30;;;;;;;3.50;1.00;;;;;;;5.82;96.44;99511.75;1712501;81;26637;-67
2021/11/08 10:13:12;;;;;;;5.10;1.20;;;;;;;5.77;96.45;99520.10;1689581;81;20992;-66
2021/11/08 10:16:05;;;;;;;4.05;1.52;;;;;;;5.73;96.51;99527.58;1715035;81;21060;-68
2021/11/08 10:18:34;;;;;;;3.98;1.95;;;;;;;5.70;96.69;99522.50;1713110;81;21055;-67
2021/11/08 10:21:14;;;;;;;3.90;1.90;;;;;;;5.67;96.75;99545.91;1716753;81;21233;-67
2021/11/08 10:23:45;;;;;;;9.10;3.02;;;;;;;5.54;96.52;99533.30;1711572;81;21257;-67
2021/11/08 10:26:17;;;;;;;4.53;1.57;;;;;;;5.46;96.73;99544.36;1714199;81;21068;-67
2021/11/08 10:29:06;;;;;;;5.35;1.98;;;;;;;5.31;96.33;99559.03;1714891;81;21504;-68
2021/11/08 10:31:37;;;;;;;4.40;1.47;;;;;;;5.12;96.01;99558.23;1713083;81;21134;-68
2021/11/08 10:34:08;;;;;;;5.08;2.10;;;;;;;5.03;96.24;99554.61;1713572;82;20970;-68
2021/11/08 10:36:37;;;;;;;6.47;3.80;;;;;;;5.03;96.58;99571.89;1683198;84;22053;-70
2021/11/08 10:39:08;;;;;;;5.35;2.77;;;;;;;5.00;96.78;99570.23;1631561;85;21110;-69
2021/11/08 10:41:39;;;;;;;5.55;2.55;;;;;;;4.98;96.82;99576.33;1703813;82;21028;-68
2021/11/08 10:45:23;;;;;;;6.00;2.15;;;;;;;5.09;96.97;99582.91;1814929;77;22773;-67
2021/11/08 10:48:02;;;;;;;9.23;2.80;;;;;;;5.12;97.03;99588.00;1813245;78;20981;-68
2021/11/08 10:50:39;;;;;;;7.55;2.85;;;;;;;5.22;97.14;99586.02;1812541;78;21461;-68
2021/11/08 10:53:06;;;;;;;6.85;2.83;;;;;;;5.26;96.86;99584.19;1810896;78;21494;-70
2021/11/08 10:55:33;;;;;;;8.95;2.30;;;;;;;5.20;96.59;99586.95;1815246;77;20927;-68
2021/11/08 10:58:19;;;;;;;4.47;1.75;;;;;;;5.17;96.08;99587.89;1808996;77;20977;-68
2021/11/08 11:01:01;;;;;;;5.05;1.65;;;;;;;5.16;96.16;99596.55;1812573;78;22277;-66
2021/11/08 11:03:29;;;;;;;4.35;2.22;;;;;;;5.22;96.12;99596.83;1810308;77;21096;-67
2021/11/08 11:06:01;;;;;;;2.35;1.60;;;;;;;5.22;95.81;99592.95;1806387;78;21012;-67
2021/11/08 11:08:34;;;;;;;2.05;1.10;;;;;;;5.24;95.46;99598.94;1810353;78;21046;-68
2021/11/08 11:11:05;;;;;;;3.08;1.20;;;;;;;5.27;95.62;99606.63;1811932;78;21575;-69
2021/11/08 11:13:35;;;;;;;2.77;1.10;;;;;;;5.36;95.17;99608.95;1811550;77;21070;-68
2021/11/08 11:16:05;;;;;;;3.17;1.07;;;;;;;5.37;94.60;99615.81;1809536;78;21911;-69
2021/11/08 11:21:23;;;;;;;2.67;1.22;;;;;;;5.48;94.96;99618.95;1737391;81;21111;-67
2021/11/08 11:23:51;;;;;;;3.30;1.57;;;;;;;5.43;94.65;99627.28;1719797;81;21163;-68
2021/11/08 11:26:20;;;;;;;;;;;;;;;5.45;94.50;99629.39;1724924;81;21005;-69
2021/11/08 11:28:50;;;;;;;3.80;1.22;;;;;;;5.46;94.69;99633.70;1725796;82;21099;-68
2021/11/08 11:31:24;;;;;;;2.77;1.50;;;;;;;5.47;94.91;99630.20;1725337;81;21079;-68
2021/11/08 11:33:58;;;;;;;6.35;1.90;;;;;;;5.51;95.30;99636.98;1718978;82;22000;-68
2021/11/08 11:36:27;;;;;;;5.30;2.20;;;;;;;5.58;95.04;99637.23;1722373;81;20914;-69
2021/11/08 11:38:59;;;;;;;6.72;1.90;;;;;;;5.56;94.94;99640.30;1722068;82;21112;-69
2021/11/08 11:41:31;;;;;;;5.15;2.10;;;;;;;5.60;95.10;99647.11;1717025;81;21452;-69
2021/11/08 11:44:04;;;;;;;4.75;2.10;;;;;;;5.70;95.36;99644.25;1717891;81;21085;-70
2021/11/08 11:46:42;;;;;;;4.70;2.00;;;;;;;5.80;95.33;99646.99;1714938;81;21045;-69
2021/11/08 11:49:10;;;;;;;4.80;2.33;;;;;;;5.80;94.63;99645.70;1722830;82;21013;-68
2021/11/08 11:51:46;;;;;;;4.05;1.92;;;;;;;5.76;94.16;99650.55;1725719;82;21123;-69
2021/11/08 11:54:15;;;;;;;3.58;1.55;;;;;;;5.74;93.98;99656.21;1720771;82;21069;-70
2021/11/08 11:56:44;;;;;;;3.50;1.57;;;;;;;5.72;94.04;99651.55;1724731;82;21023;-68
2021/11/08 11:59:14;;;;;;;4.17;1.40;;;;;;;5.77;94.61;99660.00;1720655;81;20961;-67
2021/11/08 12:01:44;;;;;;;4.55;1.90;;;;;;;5.81;94.10;99653.86;1717122;81;21058;-68
2021/11/08 12:04:13;;;;;;;4.92;2.10;;;;;;;5.81;94.36;99665.52;1718066;81;21059;-67
2021/11/08 12:06:44;;;;;;;2.90;1.45;;;;;;;5.85;94.40;99665.82;1721496;82;21102;-66
2021/11/08 12:09:19;;;;;;;6.33;1.90;;;;;;;5.89;94.36;99678.27;1723999;81;21061;-66
2021/11/08 12:11:52;;;;;;;3.92;2.05;;;;;;;5.91;94.49;99678.63;1699656;82;20951;-67
2021/11/08 12:14:24;;;;;;;4.25;1.75;;;;;;;5.88;93.66;99692.97;1721874;81;21006;-69
2021/11/08 12:17:05;;;;;;;2.55;1.35;;;;;;;5.86;93.95;99683.09;1676559;84;22343;-68
2021/11/08 12:19:36;;;;;;;4.80;2.12;;;;;;;5.90;94.21;99691.16;1669835;84;21237;-68
2021/11/08 12:22:23;;;;;;;3.95;1.75;;;;;;;5.89;94.03;99692.06;1657495;85;20944;-68
2021/11/08 12:24:59;;;;;;;;;;;;;;;5.89;94.24;99692.06;1659500;85;21048;-68
2021/11/08 12:27:50;;;;;;;3.62;1.50;;;;;;;5.84;93.65;99698.66;1656129;85;20190;-68
2021/11/08 12:30:31;;;;;;;5.12;1.60;;;;;;;5.79;93.96;99698.39;1690481;83;21023;-69
2021/11/08 12:34:22;;;;;;;3.35;1.17;;;;;;;5.74;93.64;99696.37;1806135;77;22854;-68
2021/11/08 12:36:58;;;;;;;3.58;1.65;;;;;;;5.65;93.85;99700.52;1812608;78;20920;-68
2021/11/08 12:39:32;;;;;;;2.35;1.37;;;;;;;5.56;92.60;99702.46;1809036;77;21919;-70
2021/11/08 12:42:06;;;;;;;4.92;1.82;;;;;;;5.54;92.69;99708.12;1810699;77;21050;-69
2021/11/08 12:44:44;;;;;;;3.08;1.42;;;;;;;5.58;93.48;99713.64;1810764;77;21041;-70
2021/11/08 12:47:14;;;;;;;2.40;1.12;;;;;;;5.56;92.62;99715.41;1814586;78;21002;-69
2021/11/08 12:49:55;;;;;;;3.20;1.80;;;;;;;5.51;92.35;99732.81;1807560;78;21596;-69
2021/11/08 12:52:27;;;;;;;4.58;1.87;;;;;;;5.47;91.45;99731.20;1810595;77;21886;-69
2021/11/08 12:55:02;;;;;;;7.25;1.98;;;;;;;5.45;92.68;99727.80;1807301;78;20886;-70
2021/11/08 12:57:31;;;;;;;4.12;1.25;;;;;;;5.40;91.80;99734.83;1808888;78;20994;-70
2021/11/08 13:00:28;;;;;;;5.20;3.08;;;;;;;5.30;90.12;99729.50;1812833;78;21479;-69
2021/11/08 13:02:57;;;;;;;14.55;10.38;;;;;;;5.30;91.60;99729.50;1814417;78;21361;-69
2021/11/08 13:05:29;;;;;;;3.35;2.02;;;;;;;5.26;91.82;99742.11;1811395;77;22308;-69
2021/11/08 13:08:07;;;;;;;4.45;2.30;;;;;;;5.20;90.33;99737.09;1808349;78;21160;-69
2021/11/08 13:13:08;;;;;;;6.28;2.17;;;;;;;5.23;90.87;99755.13;1879028;74;22652;-68
2021/11/08 13:15:45;;;;;;;5.90;2.00;;;;;;;5.18;91.38;99761.70;1841612;75;21013;-69
2021/11/08 13:18:16;;;;;;;6.08;2.35;;;;;;;5.16;91.29;99757.87;1842315;75;21205;-70
2021/11/08 13:21:04;;;;;;;5.70;2.27;;;;;;;5.15;91.49;99763.95;1807629;75;20983;-68
2021/11/08 13:23:39;;;;;;;3.98;1.67;;;;;;;5.15;91.41;99765.25;1831848;75;21012;-69
2021/11/08 13:26:22;;;;;;;9.25;2.87;;;;;;;5.07;90.79;99763.28;1797092;77;21031;-69
2021/11/08 13:28:51;;;;;;;6.12;2.70;;;;;;;5.02;89.96;99771.59;1799381;78;21076;-69
2021/11/08 13:31:34;;;;;;;8.48;2.83;;;;;;;4.98;91.20;99771.69;1653776;85;21101;-70
2021/11/08 13:34:43;;;;;;;12.23;3.50;;;;;;;4.98;91.39;99783.34;1653440;85;20981;-70
2021/11/08 13:37:10;;;;;;;12.70;3.87;;;;;;;4.90;90.69;99773.16;1615087;85;21389;-69
2021/11/08 13:39:54;;;;;;;7.15;3.10;;;;;;;4.88;91.13;99781.42;1523802;92;21178;-70
2021/11/08 13:42:42;;;;;;;4.75;2.35;;;;;;;4.84;90.35;99796.14;1520757;92;21154;-68